Terminal Aerodrome Forecast
Issued by NWS Springfield, MO

Home | Current Version | Previous Version | Text Only | Print | Product List | Glossary On
Versions: 1 2 3 4 5 6 7 8 9 10 11 12 13 14 15 16 17 18 19 20 21 22 23 24
000
FTUS43 KSGF 210500
TAFSGF
TAF
KSGF 210520Z 2106/2206 22007KT P6SM FEW100 SCT250
     FM211400 25018G28KT P6SM SCT060 BKN100 PROB30 2118/2124 5SM
      -TSRA BKN040CB
     FM220000 22008KT P6SM VCSH SCT040 BKN100 WS020/25040KT=

USA.gov is the U.S. government's official web portal to all federal, state and local government web resources and services.